createdAt,value
2019-01-31T00:02:36.664Z,28.02
2019-01-31T00:05:20.748Z,26.45
2019-01-31T00:08:14.943Z,27.32
2019-01-31T00:11:23.500Z,27.32
2019-01-31T00:14:21.921Z,26.68
2019-01-31T00:17:16.326Z,28.77
2019-01-31T00:20:06.097Z,27.93
2019-01-31T00:23:19.540Z,28.07
2019-01-31T00:26:03.876Z,27.32
2019-01-31T00:29:03.716Z,27.13
2019-01-31T00:32:21.438Z,26.60
2019-01-31T00:35:26.358Z,27.17
2019-01-31T00:38:34.130Z,26.87
2019-01-31T00:41:15.582Z,26.52
2019-01-31T00:43:57.756Z,26.45
2019-01-31T00:46:50.645Z,28.40
2019-01-31T00:49:41.333Z,29.20
2019-01-31T00:52:45.807Z,26.23
2019-01-31T00:55:40.523Z,26.47
2019-01-31T00:58:38.711Z,27.58
2019-01-31T01:01:29.980Z,24.93
2019-01-31T01:04:16.327Z,27.53
2019-01-31T01:07:38.671Z,28.12
2019-01-31T01:10:25.618Z,27.27
2019-01-31T01:13:30.204Z,26.82
2019-01-31T01:16:39.897Z,24.92
2019-01-31T01:19:36.805Z,26.12
2019-01-31T01:22:53.514Z,26.17
2019-01-31T01:26:30.703Z,25.40
2019-01-31T01:29:48.269Z,26.05
2019-01-31T01:32:23.391Z,25.80
2019-01-31T01:35:16.875Z,24.92
2019-01-31T01:38:13.555Z,26.00
2019-01-31T01:41:08.517Z,25.90
2019-01-31T01:43:50.345Z,25.90
2019-01-31T01:46:39.205Z,25.80
2019-01-31T01:49:39.629Z,26.45
2019-01-31T01:52:32.290Z,27.13
2019-01-31T01:55:11.013Z,26.45
2019-01-31T01:58:01.550Z,24.45
2019-01-31T02:01:20.812Z,26.48
2019-01-31T02:04:21.175Z,25.25
2019-01-31T02:07:52.379Z,24.90
2019-01-31T02:11:11.409Z,24.25
2019-01-31T02:14:23.365Z,24.02
2019-01-31T02:17:13.889Z,24.77
2019-01-31T02:20:27.119Z,24.05
2019-01-31T02:23:20.763Z,24.52
2019-01-31T02:26:36.467Z,24.47
2019-01-31T02:29:54.305Z,24.70
2019-01-31T02:33:04.099Z,23.80
2019-01-31T02:35:56.170Z,24.60
2019-01-31T02:39:18.360Z,24.30
2019-01-31T02:42:31.444Z,25.23
2019-01-31T02:45:28.437Z,22.60
2019-01-31T02:48:26.483Z,23.67
2019-01-31T02:51:46.448Z,26.00
2019-01-31T02:54:43.176Z,22.27
2019-01-31T02:57:49.298Z,23.10
2019-01-31T03:00:46.567Z,22.87
2019-01-31T03:03:41.904Z,24.82
2019-01-31T03:06:52.667Z,22.93
2019-01-31T03:09:41.432Z,22.60
2019-01-31T03:12:53.879Z,21.47
2019-01-31T03:15:55.307Z,22.20
2019-01-31T03:18:53.020Z,21.48
2019-01-31T03:21:34.883Z,22.15
2019-01-31T03:24:40.912Z,22.93
2019-01-31T03:27:42.544Z,22.67
2019-01-31T03:30:53.542Z,21.23
2019-01-31T03:33:46.437Z,23.18
2019-01-31T03:36:53.599Z,21.62
2019-01-31T03:40:24.489Z,20.80
2019-01-31T03:43:07.668Z,21.73
2019-01-31T03:46:05.546Z,22.35
2019-01-31T03:49:11.265Z,22.48
2019-01-31T03:52:09.196Z,21.30
2019-01-31T03:55:07.913Z,20.87
2019-01-31T03:58:08.630Z,21.35
2019-01-31T04:01:02.026Z,21.23
2019-01-31T04:03:45.576Z,21.10
2019-01-31T04:06:21.999Z,21.48
2019-01-31T04:08:50.956Z,22.70
2019-01-31T04:11:19.956Z,22.13
2019-01-31T04:13:48.938Z,21.70
2019-01-31T04:16:17.864Z,22.30
2019-01-31T04:18:46.764Z,21.23
2019-01-31T04:21:15.993Z,21.77
2019-01-31T04:23:44.868Z,21.57
2019-01-31T04:26:13.743Z,21.80
2019-01-31T04:28:46.147Z,21.40
2019-01-31T04:31:15.069Z,21.80
2019-01-31T04:33:44.021Z,19.98
2019-01-31T04:36:13.026Z,20.23
2019-01-31T04:38:41.894Z,20.67
2019-01-31T04:41:10.758Z,20.70
2019-01-31T04:43:39.563Z,20.03
2019-01-31T04:46:08.476Z,20.43
2019-01-31T04:48:37.373Z,19.80
2019-01-31T04:51:06.254Z,19.70
2019-01-31T04:53:35.162Z,19.70
2019-01-31T04:56:03.977Z,20.30
2019-01-31T04:58:32.809Z,18.87
2019-01-31T05:01:01.644Z,19.77
2019-01-31T05:03:30.572Z,19.37
2019-01-31T05:05:59.408Z,19.02
2019-01-31T05:08:30.903Z,19.45
2019-01-31T05:10:58.925Z,20.65
2019-01-31T05:13:27.765Z,20.45
2019-01-31T05:15:56.621Z,19.73
2019-01-31T05:18:25.479Z,20.47
2019-01-31T05:20:54.336Z,20.20
2019-01-31T05:23:23.332Z,20.12
2019-01-31T05:25:52.223Z,20.73
2019-01-31T05:28:21.144Z,19.55
2019-01-31T05:30:50.060Z,20.97
2019-01-31T05:33:18.953Z,21.50
2019-01-31T05:35:47.851Z,20.17
2019-01-31T05:38:17.611Z,20.48
2019-01-31T05:40:55.298Z,19.07
2019-01-31T05:43:17.172Z,21.33
2019-01-31T05:45:45.990Z,20.00
2019-01-31T05:48:15.089Z,19.57
2019-01-31T05:50:44.035Z,20.27
2019-01-31T05:53:12.923Z,19.97
2019-01-31T05:55:41.853Z,20.02
2019-01-31T05:58:10.723Z,17.70
2019-01-31T06:00:39.760Z,19.30
2019-01-31T06:03:08.589Z,18.83
2019-01-31T06:05:37.735Z,17.92
2019-01-31T06:08:06.698Z,18.60
2019-01-31T06:10:35.521Z,19.10
2019-01-31T06:13:04.485Z,19.77
2019-01-31T06:15:33.557Z,18.93
2019-01-31T06:18:02.559Z,19.30
2019-01-31T06:20:31.533Z,20.90
2019-01-31T06:23:00.425Z,20.45
2019-01-31T06:25:29.274Z,19.32
2019-01-31T06:27:58.195Z,20.10
2019-01-31T06:30:27.225Z,20.13
2019-01-31T06:32:56.274Z,20.37
2019-01-31T06:35:25.317Z,19.67
2019-01-31T06:37:54.293Z,17.30
2019-01-31T06:40:23.205Z,21.03
2019-01-31T06:42:52.239Z,20.10
2019-01-31T06:45:21.714Z,20.83
2019-01-31T06:47:50.829Z,21.50
2019-01-31T06:50:19.679Z,19.47
2019-01-31T06:52:48.619Z,19.70
2019-01-31T06:55:17.594Z,18.35
2019-01-31T06:57:46.489Z,20.20
2019-01-31T07:00:17.877Z,21.00
2019-01-31T07:02:46.794Z,19.37
2019-01-31T07:05:15.797Z,19.40
2019-01-31T07:07:44.729Z,19.45
2019-01-31T07:10:19.859Z,18.90
2019-01-31T07:12:48.819Z,18.87
2019-01-31T07:15:17.939Z,19.73
2019-01-31T07:17:46.771Z,18.13
2019-01-31T07:20:16.292Z,18.42
2019-01-31T07:22:45.340Z,18.87
2019-01-31T07:25:16.789Z,19.77
2019-01-31T07:27:45.736Z,19.47
2019-01-31T07:30:15.189Z,18.93
2019-01-31T07:32:44.021Z,18.53
2019-01-31T07:35:13.821Z,19.37
2019-01-31T07:37:42.911Z,19.60
2019-01-31T07:40:14.301Z,18.80
2019-01-31T07:42:43.295Z,18.97
2019-01-31T07:45:18.101Z,20.23
2019-01-31T07:47:47.147Z,18.47
2019-01-31T07:50:16.415Z,17.83
2019-01-31T07:52:45.230Z,18.20
2019-01-31T07:55:14.355Z,19.17
2019-01-31T07:57:45.989Z,18.60
2019-01-31T08:00:18.884Z,18.87
2019-01-31T08:02:47.810Z,18.47
2019-01-31T08:05:18.308Z,19.57
2019-01-31T08:07:47.909Z,20.03
2019-01-31T08:10:28.953Z,20.60
2019-01-31T08:12:57.980Z,19.17
2019-01-31T08:15:26.910Z,18.60
2019-01-31T08:17:55.824Z,18.40
2019-01-31T08:20:24.617Z,18.73
2019-01-31T08:22:53.482Z,19.07
2019-01-31T08:25:22.897Z,18.30
2019-01-31T08:27:52.616Z,18.60
2019-01-31T08:30:23.804Z,19.20
2019-01-31T08:32:52.774Z,18.10
2019-01-31T08:35:21.788Z,17.90
2019-01-31T08:37:50.708Z,17.70
2019-01-31T08:40:19.984Z,18.60
2019-01-31T08:42:48.882Z,17.73
2019-01-31T08:45:17.764Z,17.43
2019-01-31T08:47:46.723Z,17.33
2019-01-31T08:50:17.952Z,18.67
2019-01-31T08:52:46.842Z,18.47
2019-01-31T08:55:15.902Z,17.77
2019-01-31T08:57:47.413Z,17.53
2019-01-31T09:00:20.174Z,18.27
2019-01-31T09:02:49.662Z,18.90
2019-01-31T09:05:18.652Z,17.30
2019-01-31T09:07:47.547Z,17.87
2019-01-31T09:10:18.583Z,16.37
2019-01-31T09:12:47.416Z,18.50
2019-01-31T09:15:18.524Z,16.47
2019-01-31T09:17:47.526Z,19.03
2019-01-31T09:20:18.470Z,19.43
2019-01-31T09:23:11.321Z,16.90
2019-01-31T09:26:10.753Z,17.73
2019-01-31T09:29:22.241Z,17.47
2019-01-31T09:32:12.839Z,17.90
2019-01-31T09:35:21.557Z,18.47
2019-01-31T09:38:25.988Z,16.33
2019-01-31T09:41:21.131Z,17.30
2019-01-31T09:44:43.438Z,16.40
2019-01-31T09:47:58.065Z,15.73
2019-01-31T09:51:26.053Z,15.77
2019-01-31T09:54:14.873Z,15.00
2019-01-31T09:57:28.271Z,16.17
2019-01-31T10:00:37.542Z,17.47
2019-01-31T10:03:36.930Z,14.90
2019-01-31T10:06:34.155Z,13.87
2019-01-31T10:09:40.039Z,14.20
2019-01-31T10:12:18.737Z,15.13
2019-01-31T10:15:40.525Z,13.97
2019-01-31T10:18:39.384Z,14.17
2019-01-31T10:21:27.122Z,13.70
2019-01-31T10:24:10.586Z,13.30
2019-01-31T10:27:22.470Z,13.40
2019-01-31T10:30:24.282Z,13.73
2019-01-31T10:33:25.041Z,12.10
2019-01-31T10:36:32.006Z,11.77
2019-01-31T10:39:31.247Z,11.10
2019-01-31T10:42:33.514Z,11.50
2019-01-31T10:45:40.875Z,11.40
2019-01-31T10:48:38.793Z,11.93
2019-01-31T10:51:50.003Z,11.67
2019-01-31T10:54:43.229Z,11.03
2019-01-31T10:57:49.095Z,11.40
2019-01-31T11:00:56.729Z,11.00
2019-01-31T11:03:52.267Z,10.90
2019-01-31T11:06:58.629Z,11.03
2019-01-31T11:09:55.471Z,11.40
2019-01-31T11:13:00.864Z,12.13
2019-01-31T11:16:03.231Z,11.20
2019-01-31T11:18:40.665Z,10.80
2019-01-31T11:21:37.716Z,11.40
2019-01-31T11:24:52.153Z,10.53
2019-01-31T11:27:53.143Z,9.93
2019-01-31T11:30:55.006Z,10.70
2019-01-31T11:33:47.078Z,10.83
2019-01-31T11:37:05.149Z,10.93
2019-01-31T11:40:08.141Z,8.60
2019-01-31T11:43:11.482Z,7.73
2019-01-31T11:45:57.041Z,7.70
2019-01-31T11:49:08.773Z,9.03
2019-01-31T11:52:13.385Z,8.53
2019-01-31T11:55:09.996Z,7.80
2019-01-31T11:57:49.400Z,7.20
2019-01-31T12:00:20.853Z,7.63
2019-01-31T12:02:55.059Z,8.50
2019-01-31T12:05:20.259Z,7.70
2019-01-31T12:07:49.128Z,8.03
2019-01-31T12:10:18.281Z,7.20
2019-01-31T12:12:47.253Z,7.70
2019-01-31T12:15:16.259Z,6.90
2019-01-31T12:17:45.122Z,6.83
2019-01-31T12:20:14.998Z,7.03
2019-01-31T12:22:44.177Z,7.03
2019-01-31T12:25:13.465Z,6.27
2019-01-31T12:27:42.364Z,7.23
2019-01-31T12:30:21.429Z,6.70
2019-01-31T12:32:50.241Z,5.30
2019-01-31T12:35:19.138Z,5.67
2019-01-31T12:37:48.164Z,6.73
2019-01-31T12:40:17.691Z,5.90
2019-01-31T12:42:46.883Z,6.90
2019-01-31T12:45:17.532Z,5.80
2019-01-31T12:47:46.456Z,6.63
2019-01-31T12:50:18.170Z,6.73
2019-01-31T12:52:47.066Z,6.53
2019-01-31T12:55:16.368Z,6.10
2019-01-31T12:57:45.411Z,6.23
2019-01-31T13:00:35.849Z,6.10
2019-01-31T13:03:04.893Z,5.30
2019-01-31T13:05:33.786Z,5.73
2019-01-31T13:08:02.768Z,6.13
2019-01-31T13:10:31.765Z,6.10
2019-01-31T13:13:00.967Z,5.80
2019-01-31T13:15:30.040Z,5.80
2019-01-31T13:17:58.934Z,4.77
2019-01-31T13:20:27.838Z,5.07
2019-01-31T13:22:57.563Z,4.37
2019-01-31T13:25:27.935Z,5.57
2019-01-31T13:27:56.910Z,4.20
2019-01-31T13:30:25.838Z,3.40
2019-01-31T13:32:56.033Z,2.20
2019-01-31T13:35:24.992Z,5.10
2019-01-31T13:37:53.935Z,5.40
2019-01-31T13:40:24.553Z,8.10
2019-01-31T13:42:54.143Z,9.27
2019-01-31T13:45:28.500Z,9.83
2019-01-31T13:47:59.668Z,9.20
2019-01-31T13:50:28.512Z,8.90
2019-01-31T13:52:57.472Z,10.07
2019-01-31T13:55:28.427Z,9.93
2019-01-31T13:57:57.427Z,10.10
2019-01-31T14:00:26.649Z,10.03
2019-01-31T14:02:55.728Z,10.40
2019-01-31T14:05:25.809Z,10.20
2019-01-31T14:07:54.876Z,10.57
2019-01-31T14:10:24.480Z,9.20
2019-01-31T14:12:53.441Z,10.50
2019-01-31T14:15:33.081Z,10.50
2019-01-31T14:17:56.165Z,10.30
2019-01-31T14:20:26.350Z,9.60
2019-01-31T14:22:55.517Z,10.40
2019-01-31T14:25:24.485Z,9.43
2019-01-31T14:27:53.447Z,10.80
2019-01-31T14:30:27.565Z,9.53
2019-01-31T14:32:56.859Z,10.50
2019-01-31T14:35:25.879Z,10.27
2019-01-31T14:37:54.932Z,9.90
2019-01-31T14:40:24.509Z,9.90
2019-01-31T14:42:53.495Z,9.60
2019-01-31T14:45:22.869Z,8.43
2019-01-31T14:47:55.751Z,9.20
2019-01-31T14:50:29.604Z,8.73
2019-01-31T14:52:58.704Z,9.67
2019-01-31T14:55:27.643Z,9.43
2019-01-31T14:57:56.762Z,8.80
2019-01-31T15:00:27.705Z,8.73
2019-01-31T15:02:56.720Z,8.53
2019-01-31T15:05:25.659Z,9.83
2019-01-31T15:07:54.709Z,9.23
2019-01-31T15:10:25.585Z,9.10
2019-01-31T15:12:54.487Z,9.60
2019-01-31T15:15:23.424Z,8.90
2019-01-31T15:17:53.159Z,9.33
2019-01-31T15:20:35.996Z,9.13
2019-01-31T15:22:58.225Z,8.80
2019-01-31T15:25:27.125Z,10.50
2019-01-31T15:27:56.115Z,10.03
2019-01-31T15:30:27.685Z,10.40
2019-01-31T15:32:56.650Z,10.50
2019-01-31T15:35:25.670Z,11.27
2019-01-31T15:37:54.713Z,11.17
2019-01-31T15:40:27.439Z,11.00
2019-01-31T15:42:56.322Z,11.23
2019-01-31T15:45:25.509Z,11.27
2019-01-31T15:47:54.679Z,11.63
2019-01-31T15:50:23.824Z,11.37
2019-01-31T15:52:52.774Z,11.40
2019-01-31T15:55:22.180Z,12.23
2019-01-31T15:57:51.141Z,10.90
2019-01-31T16:00:42.067Z,11.30
2019-01-31T16:03:22.120Z,11.60
2019-01-31T16:05:51.472Z,12.13
2019-01-31T16:08:20.682Z,11.40
2019-01-31T16:10:49.766Z,11.53
2019-01-31T16:13:18.949Z,11.37
2019-01-31T16:15:48.474Z,11.50
2019-01-31T16:18:17.542Z,11.97
2019-01-31T16:20:46.585Z,12.37
2019-01-31T16:23:15.992Z,12.57
2019-01-31T16:25:47.605Z,11.87
2019-01-31T16:28:17.024Z,11.97
2019-01-31T16:30:45.962Z,11.40
2019-01-31T16:33:14.868Z,11.50
2019-01-31T16:35:44.346Z,11.00
2019-01-31T16:38:13.257Z,11.60
2019-01-31T16:40:42.195Z,10.50
2019-01-31T16:43:11.136Z,10.90
2019-01-31T16:45:40.109Z,11.50
2019-01-31T16:48:09.135Z,11.37
2019-01-31T16:50:38.103Z,12.03
2019-01-31T16:53:08.426Z,10.87
2019-01-31T16:55:37.478Z,11.27
2019-01-31T16:58:07.199Z,12.03
2019-01-31T17:00:36.262Z,10.40
2019-01-31T17:03:06.326Z,11.70
2019-01-31T17:05:35.389Z,11.50
2019-01-31T17:08:05.525Z,11.80
2019-01-31T17:10:34.534Z,11.33
2019-01-31T17:13:03.745Z,12.37
2019-01-31T17:15:32.544Z,12.40
2019-01-31T17:18:01.490Z,12.07
2019-01-31T17:20:42.367Z,11.47
2019-01-31T17:23:11.286Z,11.33
2019-01-31T17:25:40.234Z,11.80
2019-01-31T17:28:09.132Z,12.57
2019-01-31T17:30:38.094Z,12.97
2019-01-31T17:33:07.229Z,13.50
2019-01-31T17:35:36.127Z,12.90
2019-01-31T17:38:05.315Z,13.07
2019-01-31T17:40:36.501Z,13.60
2019-01-31T17:43:05.921Z,14.40
2019-01-31T17:45:34.842Z,11.97
2019-01-31T17:48:03.851Z,14.23
2019-01-31T17:50:32.727Z,14.00
2019-01-31T17:53:01.694Z,14.73
2019-01-31T17:55:30.694Z,14.50
2019-01-31T17:57:59.668Z,13.30
2019-01-31T18:00:36.162Z,14.20
2019-01-31T18:03:05.915Z,15.23
2019-01-31T18:05:34.983Z,14.60
2019-01-31T18:08:04.519Z,14.90
2019-01-31T18:10:33.563Z,16.37
2019-01-31T18:13:02.439Z,18.97
2019-01-31T18:15:41.530Z,16.57
2019-01-31T18:18:02.939Z,20.10
2019-01-31T18:20:31.888Z,18.83
2019-01-31T18:23:00.941Z,16.87
2019-01-31T18:25:29.969Z,17.40
2019-01-31T18:27:58.854Z,16.30
2019-01-31T18:30:28.843Z,18.67
2019-01-31T18:32:57.889Z,19.80
2019-01-31T18:35:26.977Z,19.53
2019-01-31T18:37:56.023Z,18.20
2019-01-31T18:40:27.034Z,18.13
2019-01-31T18:42:56.235Z,19.77
2019-01-31T18:45:27.116Z,19.20
2019-01-31T18:47:56.215Z,18.50
2019-01-31T18:50:30.316Z,22.20
2019-01-31T18:52:59.357Z,19.93
2019-01-31T18:55:28.835Z,19.47
2019-01-31T18:57:57.857Z,20.50
2019-01-31T19:00:29.164Z,18.97
2019-01-31T19:02:58.171Z,21.43
2019-01-31T19:05:27.331Z,20.83
2019-01-31T19:07:56.350Z,23.33
2019-01-31T19:10:25.403Z,21.97
2019-01-31T19:12:54.451Z,21.20
2019-01-31T19:15:23.508Z,22.67
2019-01-31T19:17:52.460Z,26.73
2019-01-31T19:20:23.514Z,47.30
2019-01-31T19:22:53.248Z,35.70
2019-01-31T19:25:22.366Z,27.57
2019-01-31T19:27:51.376Z,38.63
2019-01-31T19:30:25.549Z,28.00
2019-01-31T19:32:54.754Z,27.62
2019-01-31T19:35:23.765Z,25.88
2019-01-31T19:38:01.605Z,22.73
2019-01-31T19:40:25.603Z,24.77
2019-01-31T19:42:54.646Z,23.15
2019-01-31T19:45:26.584Z,24.43
2019-01-31T19:47:55.688Z,25.23
2019-01-31T19:50:24.624Z,23.87
2019-01-31T19:52:53.838Z,26.00
2019-01-31T19:55:22.840Z,23.22
2019-01-31T19:57:51.859Z,25.17
2019-01-31T20:00:21.480Z,26.35
2019-01-31T20:02:50.719Z,24.47
2019-01-31T20:05:19.799Z,25.70
2019-01-31T20:07:49.037Z,29.23
2019-01-31T20:10:21.644Z,26.68
2019-01-31T20:12:50.679Z,26.33
2019-01-31T20:15:19.742Z,25.70
2019-01-31T20:17:48.886Z,25.65
2019-01-31T20:20:20.672Z,27.40
2019-01-31T20:22:50.500Z,25.45
2019-01-31T20:25:19.632Z,26.30
2019-01-31T20:27:49.061Z,25.07
2019-01-31T20:30:21.167Z,26.67
2019-01-31T20:32:50.591Z,26.97
2019-01-31T20:35:20.017Z,27.63
2019-01-31T20:37:48.994Z,27.60
2019-01-31T20:40:20.504Z,28.67
2019-01-31T20:42:49.486Z,25.90
2019-01-31T20:45:18.718Z,26.90
2019-01-31T20:47:47.739Z,28.10
2019-01-31T20:50:25.027Z,28.23
2019-01-31T20:52:54.326Z,29.48
2019-01-31T20:55:23.338Z,27.13
2019-01-31T20:57:52.377Z,29.03
2019-01-31T21:00:29.036Z,27.40
2019-01-31T21:02:58.160Z,28.53
2019-01-31T21:05:27.398Z,28.27
2019-01-31T21:07:56.433Z,29.10
2019-01-31T21:10:26.540Z,29.20
2019-01-31T21:12:55.705Z,30.55
2019-01-31T21:15:24.879Z,29.45
2019-01-31T21:17:54.218Z,30.35
2019-01-31T21:20:26.206Z,30.12
2019-01-31T21:22:54.335Z,30.20
2019-01-31T21:25:23.549Z,30.60
2019-01-31T21:27:52.723Z,31.23
2019-01-31T21:30:32.765Z,30.20
2019-01-31T21:33:01.815Z,30.92
2019-01-31T21:35:31.138Z,29.98
2019-01-31T21:38:00.063Z,31.10
2019-01-31T21:40:31.411Z,32.30
2019-01-31T21:43:00.424Z,30.90
2019-01-31T21:45:29.726Z,31.37
2019-01-31T21:47:58.766Z,32.93
2019-01-31T21:50:28.454Z,32.43
2019-01-31T21:52:57.948Z,33.90
2019-01-31T21:55:27.065Z,33.27
2019-01-31T21:57:56.021Z,31.00
2019-01-31T22:00:27.331Z,33.10
2019-01-31T22:02:56.403Z,34.20
2019-01-31T22:05:25.416Z,33.20
2019-01-31T22:07:54.415Z,32.67
2019-01-31T22:10:23.513Z,34.23
2019-01-31T22:12:52.565Z,33.60
2019-01-31T22:15:26.403Z,33.28
2019-01-31T22:17:59.724Z,33.50
2019-01-31T22:20:26.441Z,35.13
2019-01-31T22:22:55.548Z,34.18
2019-01-31T22:25:24.923Z,35.70
2019-01-31T22:27:53.883Z,33.50
2019-01-31T22:30:24.931Z,36.38
2019-01-31T22:32:53.974Z,34.60
2019-01-31T22:35:23.371Z,36.42
2019-01-31T22:37:52.608Z,34.18
2019-01-31T22:40:21.551Z,37.17
2019-01-31T22:42:50.693Z,36.00
2019-01-31T22:45:20.846Z,35.30
2019-01-31T22:47:49.902Z,35.65
2019-01-31T22:50:20.262Z,35.75
2019-01-31T22:52:49.267Z,36.63
2019-01-31T22:55:19.570Z,36.83
2019-01-31T22:57:48.547Z,36.07
2019-01-31T23:00:53.551Z,36.65
2019-01-31T23:03:22.465Z,37.30
2019-01-31T23:05:51.743Z,37.23
2019-01-31T23:08:20.679Z,36.08
2019-01-31T23:10:49.555Z,37.78
2019-01-31T23:13:18.492Z,37.33
2019-01-31T23:15:47.457Z,40.00
2019-01-31T23:18:16.361Z,37.28
2019-01-31T23:20:45.219Z,35.90
2019-01-31T23:23:14.103Z,37.60
2019-01-31T23:25:43.207Z,37.55
2019-01-31T23:28:12.015Z,37.05
2019-01-31T23:30:41.088Z,39.18
2019-01-31T23:33:10.140Z,38.48
2019-01-31T23:35:39.230Z,39.00
2019-01-31T23:38:08.249Z,38.98
2019-01-31T23:40:37.261Z,38.78
2019-01-31T23:43:06.489Z,39.25
2019-01-31T23:45:35.373Z,39.67
2019-01-31T23:48:04.748Z,40.10
2019-01-31T23:50:33.696Z,40.10
2019-01-31T23:53:02.493Z,41.95
2019-01-31T23:55:31.465Z,40.48
2019-01-31T23:58:00.393Z,38.70
